createdAt,value
2022-10-09T00:00:58.230Z,10.83
2022-10-09T00:01:58.260Z,10.86
2022-10-09T00:02:58.198Z,10.87
2022-10-09T00:04:00.912Z,10.87
2022-10-09T00:05:07.866Z,10.83
2022-10-09T00:05:58.166Z,10.79
2022-10-09T00:06:58.154Z,10.75
2022-10-09T00:07:58.140Z,10.72
2022-10-09T00:08:58.878Z,10.68
2022-10-09T00:10:00.046Z,10.62
2022-10-09T00:10:58.098Z,10.62
2022-10-09T00:11:59.763Z,10.61
2022-10-09T00:12:58.117Z,10.61
2022-10-09T00:13:58.116Z,10.58
2022-10-09T00:14:58.052Z,10.57
2022-10-09T00:15:58.085Z,10.57
2022-10-09T00:16:58.164Z,10.67
2022-10-09T00:17:58.041Z,10.70
2022-10-09T00:18:58.026Z,10.70
2022-10-09T00:19:57.995Z,10.68
2022-10-09T00:20:57.988Z,10.67
2022-10-09T00:21:57.967Z,10.70
2022-10-09T00:22:57.966Z,10.65
2022-10-09T00:23:59.597Z,10.65
2022-10-09T00:25:00.609Z,10.62
2022-10-09T00:25:59.750Z,10.62
2022-10-09T00:27:00.675Z,10.62
2022-10-09T00:27:57.923Z,10.58
2022-10-09T00:28:57.960Z,10.62
2022-10-09T00:29:57.893Z,10.61
2022-10-09T00:30:59.522Z,10.60
2022-10-09T00:31:57.895Z,10.62
2022-10-09T00:32:57.895Z,10.73
2022-10-09T00:33:57.844Z,10.75
2022-10-09T00:34:57.858Z,10.75
2022-10-09T00:35:58.093Z,10.70
2022-10-09T00:36:57.852Z,10.67
2022-10-09T00:37:57.822Z,10.65
2022-10-09T00:38:59.564Z,10.65
2022-10-09T00:39:57.821Z,10.61
2022-10-09T00:40:57.796Z,10.64
2022-10-09T00:41:57.798Z,10.58
2022-10-09T00:42:57.778Z,10.54
2022-10-09T00:43:57.783Z,10.46
2022-10-09T00:44:57.988Z,10.45
2022-10-09T00:45:57.838Z,10.48
2022-10-09T00:46:57.732Z,10.54
2022-10-09T00:47:57.694Z,10.54
2022-10-09T00:48:57.729Z,10.54
2022-10-09T00:49:59.445Z,10.52
2022-10-09T00:50:57.712Z,10.49
2022-10-09T00:51:59.260Z,10.45
2022-10-09T00:52:57.671Z,10.43
2022-10-09T00:53:57.720Z,10.42
2022-10-09T00:54:59.306Z,10.36
2022-10-09T00:55:57.609Z,10.31
2022-10-09T00:56:57.627Z,10.28
2022-10-09T00:57:57.626Z,10.28
2022-10-09T00:58:58.236Z,10.28
2022-10-09T00:59:57.606Z,10.26
2022-10-09T01:00:57.618Z,10.21
2022-10-09T01:01:59.394Z,10.21
2022-10-09T01:02:57.539Z,10.23
2022-10-09T01:04:00.318Z,10.31
2022-10-09T01:04:57.593Z,10.34
2022-10-09T01:05:57.512Z,10.26
2022-10-09T01:06:57.843Z,10.21
2022-10-09T01:07:59.125Z,10.24
2022-10-09T01:08:57.515Z,10.24
2022-10-09T01:09:57.511Z,10.28
2022-10-09T01:10:57.482Z,10.39
2022-10-09T01:11:58.326Z,10.41
2022-10-09T01:12:59.180Z,10.39
2022-10-09T01:13:57.449Z,10.43
2022-10-09T01:14:57.486Z,10.46
2022-10-09T01:15:58.229Z,10.48
2022-10-09T01:16:57.396Z,10.41
2022-10-09T01:18:02.220Z,10.39
2022-10-09T01:18:57.390Z,10.34
2022-10-09T01:19:57.442Z,10.27
2022-10-09T01:20:59.149Z,10.20
2022-10-09T01:21:57.349Z,10.14
2022-10-09T01:22:57.367Z,10.12
2022-10-09T01:23:57.339Z,10.10
2022-10-09T01:24:57.841Z,10.08
2022-10-09T01:25:57.402Z,10.05
2022-10-09T01:26:57.311Z,10.01
2022-10-09T01:28:01.071Z,9.98
2022-10-09T01:28:59.119Z,10.01
2022-10-09T01:29:57.276Z,9.98
2022-10-09T01:30:58.070Z,9.98
2022-10-09T01:31:57.304Z,10.06
2022-10-09T01:32:59.094Z,10.18
2022-10-09T01:33:58.158Z,10.24
2022-10-09T01:35:00.104Z,10.20
2022-10-09T01:35:59.850Z,10.20
2022-10-09T01:36:57.240Z,10.12
2022-10-09T01:37:58.800Z,10.05
2022-10-09T01:38:57.205Z,10.01
2022-10-09T01:39:57.145Z,9.94
2022-10-09T01:40:57.922Z,9.87
2022-10-09T01:41:58.898Z,9.80
2022-10-09T01:42:57.166Z,9.77
2022-10-09T01:43:57.117Z,9.75
2022-10-09T01:44:58.914Z,9.78
2022-10-09T01:45:58.764Z,9.80
2022-10-09T01:46:57.131Z,9.85
2022-10-09T01:47:57.088Z,9.88
2022-10-09T01:48:58.810Z,9.88
2022-10-09T01:49:59.821Z,9.88
2022-10-09T01:50:57.153Z,9.85
2022-10-09T01:51:58.855Z,9.99
2022-10-09T01:52:57.053Z,10.10
2022-10-09T01:53:57.832Z,10.10
2022-10-09T01:54:57.005Z,10.12
2022-10-09T01:55:57.337Z,10.06
2022-10-09T01:56:57.001Z,10.02
2022-10-09T01:57:57.012Z,9.96
2022-10-09T01:58:57.251Z,9.91
2022-10-09T01:59:57.014Z,9.90
2022-10-09T02:00:57.654Z,9.88
2022-10-09T02:01:57.807Z,9.98
2022-10-09T02:02:56.994Z,9.98
2022-10-09T02:03:56.898Z,9.96
2022-10-09T02:04:56.949Z,9.93
2022-10-09T02:05:56.896Z,9.88
2022-10-09T02:06:57.948Z,9.87
2022-10-09T02:07:56.904Z,9.77
2022-10-09T02:08:56.878Z,9.73
2022-10-09T02:10:02.967Z,9.78
2022-10-09T02:10:56.923Z,9.87
2022-10-09T02:12:00.672Z,9.94
2022-10-09T02:12:58.601Z,9.98
2022-10-09T02:13:56.843Z,9.98
2022-10-09T02:14:58.472Z,9.88
2022-10-09T02:15:56.880Z,9.83
2022-10-09T02:16:56.791Z,9.80
2022-10-09T02:17:57.535Z,9.73
2022-10-09T02:18:56.851Z,9.70
2022-10-09T02:19:56.734Z,9.65
2022-10-09T02:21:00.229Z,9.60
2022-10-09T02:21:56.741Z,9.55
2022-10-09T02:22:57.500Z,9.54
2022-10-09T02:23:56.690Z,9.55
2022-10-09T02:24:57.529Z,9.54
2022-10-09T02:25:58.332Z,9.55
2022-10-09T02:26:56.686Z,9.55
2022-10-09T02:27:56.670Z,9.57
2022-10-09T02:28:58.356Z,9.55
2022-10-09T02:29:57.399Z,9.59
2022-10-09T02:30:56.723Z,9.57
2022-10-09T02:31:56.636Z,9.60
2022-10-09T02:32:56.614Z,9.65
2022-10-09T02:33:58.326Z,9.62
2022-10-09T02:34:56.621Z,9.60
2022-10-09T02:35:56.600Z,9.59
2022-10-09T02:36:56.645Z,9.55
2022-10-09T02:37:56.555Z,9.52
2022-10-09T02:38:58.363Z,9.51
2022-10-09T02:39:57.361Z,9.50
2022-10-09T02:40:56.543Z,9.48
2022-10-09T02:41:57.251Z,9.45
2022-10-09T02:42:56.528Z,9.44
2022-10-09T02:43:56.494Z,9.45
2022-10-09T02:45:01.202Z,9.40
2022-10-09T02:46:00.021Z,9.41
2022-10-09T02:46:58.131Z,9.40
2022-10-09T02:47:56.473Z,9.37
2022-10-09T02:48:56.454Z,9.36
2022-10-09T02:49:56.477Z,9.37
2022-10-09T02:50:58.049Z,9.36
2022-10-09T02:51:56.396Z,9.33
2022-10-09T02:52:56.414Z,9.34
2022-10-09T02:53:58.814Z,9.36
2022-10-09T02:54:57.192Z,9.37
2022-10-09T02:55:56.448Z,9.37
2022-10-09T02:56:56.351Z,9.40
2022-10-09T02:57:59.089Z,9.40
2022-10-09T02:58:56.357Z,9.40
2022-10-09T03:00:04.203Z,9.34
2022-10-09T03:00:56.345Z,9.33
2022-10-09T03:01:56.460Z,9.33
2022-10-09T03:02:56.330Z,9.37
2022-10-09T03:03:56.360Z,9.41
2022-10-09T03:04:56.299Z,9.41
2022-10-09T03:05:56.312Z,9.44
2022-10-09T03:06:56.933Z,9.40
2022-10-09T03:07:56.267Z,9.36
2022-10-09T03:09:01.019Z,9.26
2022-10-09T03:09:58.027Z,9.24
2022-10-09T03:10:56.842Z,9.23
2022-10-09T03:12:10.980Z,9.19
2022-10-09T03:12:56.199Z,9.19
2022-10-09T03:13:56.215Z,9.14
2022-10-09T03:14:56.218Z,9.18
2022-10-09T03:15:56.179Z,9.16
2022-10-09T03:16:56.165Z,9.18
2022-10-09T03:17:56.901Z,9.16
2022-10-09T03:18:57.012Z,9.09
2022-10-09T03:19:56.125Z,9.01
2022-10-09T03:20:56.142Z,9.03
2022-10-09T03:21:56.141Z,8.99
2022-10-09T03:22:56.105Z,8.99
2022-10-09T03:23:56.076Z,9.03
2022-10-09T03:25:00.838Z,9.08
2022-10-09T03:25:56.086Z,9.08
2022-10-09T03:26:58.731Z,9.11
2022-10-09T03:27:56.050Z,9.14
2022-10-09T03:28:56.055Z,9.14
2022-10-09T03:29:57.829Z,9.18
2022-10-09T03:30:56.999Z,9.24
2022-10-09T03:31:56.746Z,9.22
2022-10-09T03:32:57.598Z,9.23
2022-10-09T03:33:57.598Z,9.22
2022-10-09T03:34:56.063Z,9.18
2022-10-09T03:35:55.973Z,9.14
2022-10-09T03:36:55.968Z,9.09
2022-10-09T03:37:56.155Z,9.03
2022-10-09T03:38:55.941Z,8.98
2022-10-09T03:39:58.668Z,8.96
2022-10-09T03:40:55.925Z,8.95
2022-10-09T03:41:57.879Z,8.96
2022-10-09T03:42:58.729Z,9.01
2022-10-09T03:43:57.704Z,9.06
2022-10-09T03:44:55.929Z,9.08
2022-10-09T03:45:59.244Z,9.11
2022-10-09T03:46:55.943Z,9.14
2022-10-09T03:47:56.603Z,9.11
2022-10-09T03:48:55.881Z,9.09
2022-10-09T03:49:55.825Z,9.12
2022-10-09T03:50:57.498Z,9.04
2022-10-09T03:51:57.561Z,8.98
2022-10-09T03:52:55.784Z,8.93
2022-10-09T03:53:57.588Z,8.89
2022-10-09T03:55:00.466Z,8.92
2022-10-09T03:55:55.755Z,8.93
2022-10-09T03:56:55.799Z,8.95
2022-10-09T03:57:58.948Z,8.98
2022-10-09T03:58:55.730Z,8.96
2022-10-09T03:59:56.428Z,8.93
2022-10-09T04:00:55.797Z,8.93
2022-10-09T04:01:57.470Z,8.92
2022-10-09T04:02:59.247Z,8.92
2022-10-09T04:03:55.689Z,8.90
2022-10-09T04:04:55.745Z,8.86
2022-10-09T04:05:55.695Z,8.86
2022-10-09T04:06:57.422Z,8.86
2022-10-09T04:07:56.302Z,8.81
2022-10-09T04:08:55.671Z,8.78
2022-10-09T04:09:55.673Z,8.77
2022-10-09T04:10:55.608Z,8.77
2022-10-09T04:11:56.398Z,8.75
2022-10-09T04:12:55.625Z,8.74
2022-10-09T04:13:55.573Z,8.74
2022-10-09T04:14:55.605Z,8.72
2022-10-09T04:15:55.869Z,8.72
2022-10-09T04:16:55.555Z,8.77
2022-10-09T04:17:55.595Z,8.80
2022-10-09T04:18:55.606Z,8.78
2022-10-09T04:19:55.565Z,8.85
2022-10-09T04:20:57.144Z,8.83
2022-10-09T04:21:55.564Z,8.85
2022-10-09T04:22:55.507Z,8.86
2022-10-09T04:23:55.475Z,8.81
2022-10-09T04:24:56.366Z,8.80
2022-10-09T05:18:08.445Z,8.77
2022-10-09T05:18:13.546Z,8.68
2022-10-09T05:19:13.521Z,8.80
2022-10-09T05:20:13.429Z,8.85
2022-10-09T05:21:13.422Z,8.92
2022-10-09T05:22:15.050Z,8.88
2022-10-09T05:23:13.391Z,8.88
2022-10-09T05:24:13.406Z,8.86
2022-10-09T05:25:13.402Z,8.89
2022-10-09T05:26:15.090Z,8.89
2022-10-09T05:27:13.364Z,8.85
2022-10-09T05:28:13.407Z,8.85
2022-10-09T05:29:13.352Z,8.86
2022-10-09T05:30:13.353Z,8.86
2022-10-09T05:31:15.053Z,8.81
2022-10-09T05:32:13.428Z,8.80
2022-10-09T05:33:13.294Z,8.77
2022-10-09T05:34:28.102Z,8.78
2022-10-09T05:35:13.310Z,8.75
2022-10-09T05:36:13.311Z,8.74
2022-10-09T05:37:13.314Z,8.70
2022-10-09T05:38:13.245Z,8.68
2022-10-09T07:45:09.425Z,12.76
2022-10-09T07:46:33.263Z,12.63
2022-10-09T07:47:10.323Z,12.48
2022-10-09T07:48:10.368Z,12.29
2022-10-09T07:49:10.218Z,12.17
2022-10-09T07:50:10.197Z,12.08
2022-10-09T07:51:10.173Z,12.00
2022-10-09T07:52:10.235Z,11.95
2022-10-09T07:53:22.658Z,11.93
2022-10-09T07:54:14.224Z,11.91
2022-10-09T07:55:10.140Z,11.91
2022-10-09T07:56:10.091Z,11.88
2022-10-09T07:57:10.134Z,11.85
2022-10-09T07:58:10.087Z,11.85
2022-10-09T07:59:10.074Z,11.88
2022-10-09T08:00:10.073Z,11.89
2022-10-09T08:01:10.119Z,11.91
2022-10-09T08:02:10.109Z,11.95
2022-10-09T08:03:10.104Z,11.96
2022-10-09T08:04:11.712Z,11.96
2022-10-09T08:05:10.042Z,11.95
2022-10-09T08:06:09.982Z,11.95
2022-10-09T08:07:10.009Z,11.97
2022-10-09T08:08:10.036Z,11.97
2022-10-09T08:09:10.000Z,12.03
2022-10-09T08:10:11.789Z,12.03
2022-10-09T08:11:09.934Z,12.08
2022-10-09T08:12:09.968Z,12.11
2022-10-09T08:13:09.917Z,12.11
2022-10-09T08:14:09.903Z,12.18
2022-10-09T08:15:10.156Z,12.13
2022-10-09T08:16:09.953Z,12.04
2022-10-09T08:17:11.595Z,11.99
2022-10-09T08:18:09.874Z,11.96
2022-10-09T08:19:09.873Z,11.97
2022-10-09T08:20:09.912Z,12.03
2022-10-09T08:21:09.840Z,12.00
2022-10-09T08:22:09.838Z,12.03
2022-10-09T08:23:09.866Z,11.97
2022-10-09T08:24:09.867Z,11.95
2022-10-09T08:25:09.868Z,11.93
2022-10-09T08:26:11.604Z,11.91
2022-10-09T08:27:09.873Z,11.93
2022-10-09T08:28:11.671Z,11.93
2022-10-09T08:29:09.783Z,11.96
2022-10-09T08:30:11.433Z,11.95
2022-10-09T08:31:09.817Z,11.89
2022-10-09T08:32:09.746Z,11.87
2022-10-09T08:33:09.722Z,11.79
2022-10-09T08:34:09.760Z,11.79
2022-10-09T08:35:09.765Z,11.82
2022-10-09T08:36:09.698Z,11.80
2022-10-09T08:37:09.680Z,11.84
2022-10-09T08:38:17.817Z,11.84
2022-10-09T08:39:09.683Z,11.84
2022-10-09T08:40:11.433Z,11.84
2022-10-09T08:41:09.674Z,11.89
2022-10-09T08:42:09.629Z,11.95
2022-10-09T08:43:09.634Z,12.03
2022-10-09T08:44:09.675Z,12.05
2022-10-09T08:45:09.641Z,12.10
2022-10-09T08:46:09.659Z,12.18
2022-10-09T08:47:14.192Z,12.23
2022-10-09T08:48:09.561Z,12.28
2022-10-09T08:49:09.566Z,12.30
2022-10-09T08:50:09.571Z,12.35
2022-10-09T08:51:09.544Z,12.43
2022-10-09T08:52:09.636Z,12.44
2022-10-09T08:53:10.363Z,12.51
2022-10-09T08:54:09.501Z,12.61
2022-10-09T08:55:09.536Z,12.63
2022-10-09T08:56:11.312Z,12.62
2022-10-09T08:57:09.464Z,12.69
2022-10-09T08:58:09.514Z,12.76
2022-10-09T08:59:09.502Z,12.80
2022-10-09T09:00:10.129Z,12.81
2022-10-09T09:01:09.435Z,12.81
2022-10-09T09:02:09.496Z,12.87
2022-10-09T09:03:14.181Z,12.86
2022-10-09T09:04:09.415Z,12.86
2022-10-09T09:05:09.419Z,12.83
2022-10-09T09:06:09.372Z,12.83
2022-10-09T09:07:12.058Z,12.80
2022-10-09T09:08:09.400Z,12.77
2022-10-09T09:09:11.101Z,12.81
2022-10-09T09:10:09.352Z,12.86
2022-10-09T09:11:09.358Z,12.90
2022-10-09T09:12:09.395Z,12.98
2022-10-09T09:13:14.182Z,13.06
2022-10-09T09:14:09.394Z,13.13
2022-10-09T09:15:09.333Z,13.06
2022-10-09T09:16:09.331Z,13.14
2022-10-09T09:17:09.296Z,13.08
2022-10-09T09:18:09.275Z,13.05
2022-10-09T09:19:10.003Z,13.05
2022-10-09T09:20:10.098Z,13.05
2022-10-09T09:21:09.255Z,13.09
2022-10-09T09:22:09.225Z,13.11
2022-10-09T09:23:09.223Z,13.19
2022-10-09T09:24:10.101Z,13.21
2022-10-09T09:25:09.209Z,13.21
2022-10-09T09:26:11.073Z,13.21
2022-10-09T09:27:09.177Z,13.23
2022-10-09T09:28:12.392Z,13.26
2022-10-09T09:29:10.066Z,13.29
2022-10-09T09:30:09.168Z,13.29
2022-10-09T09:31:09.203Z,13.30
2022-10-09T09:32:10.453Z,13.36
2022-10-09T09:33:11.942Z,13.42
2022-10-09T09:34:09.089Z,13.43
2022-10-09T09:35:09.095Z,13.49
2022-10-09T09:36:09.082Z,13.57
2022-10-09T09:37:10.798Z,13.60
2022-10-09T09:38:10.906Z,13.61
2022-10-09T09:40:35.458Z,13.68
2022-10-09T09:41:09.082Z,13.67
2022-10-09T09:42:09.015Z,13.71
2022-10-09T09:43:08.995Z,13.72
2022-10-09T09:44:09.005Z,13.72
2022-10-09T09:45:08.983Z,13.72
2022-10-09T09:46:09.293Z,13.72
2022-10-09T09:47:08.972Z,13.78
2022-10-09T09:48:08.970Z,13.78
2022-10-09T09:49:09.597Z,13.79
2022-10-09T09:50:23.335Z,13.79
2022-10-09T09:51:27.416Z,13.71
2022-10-09T09:52:08.946Z,13.67
2022-10-09T09:53:08.942Z,13.67
2022-10-09T09:54:08.896Z,13.63
2022-10-09T09:55:08.895Z,13.65
2022-10-09T09:56:08.890Z,13.71
2022-10-09T09:57:13.219Z,13.73
2022-10-09T09:58:08.883Z,13.80
2022-10-09T09:59:08.852Z,13.90
2022-10-09T10:00:08.877Z,13.94
2022-10-09T10:01:12.850Z,14.03
2022-10-09T10:02:08.988Z,14.11
2022-10-09T10:03:08.811Z,14.19
2022-10-09T10:04:08.815Z,14.21
2022-10-09T10:05:08.791Z,14.27
2022-10-09T10:06:08.842Z,14.34
2022-10-09T10:07:09.571Z,14.33
2022-10-09T10:08:08.740Z,14.33
2022-10-09T10:09:08.720Z,14.33
2022-10-09T10:10:08.772Z,14.30
2022-10-09T10:11:08.726Z,14.31
2022-10-09T10:12:08.743Z,14.40
2022-10-09T10:13:08.736Z,14.45
2022-10-09T10:14:08.748Z,14.38
2022-10-09T10:15:10.469Z,14.40
2022-10-09T10:16:08.842Z,14.45
2022-10-09T10:17:08.639Z,14.46
2022-10-09T10:18:08.665Z,14.49
2022-10-09T10:19:08.641Z,14.56
2022-10-09T10:20:08.670Z,14.63
2022-10-09T10:21:08.649Z,14.63
2022-10-09T10:22:08.659Z,14.61
2022-10-09T10:23:09.422Z,14.69
2022-10-09T10:24:08.592Z,14.78
2022-10-09T10:25:11.460Z,14.87
2022-10-09T10:26:08.667Z,14.90
2022-10-09T10:27:08.570Z,14.92
2022-10-09T10:28:30.413Z,15.01
2022-10-09T10:29:08.571Z,15.04
2022-10-09T10:30:08.568Z,15.03
2022-10-09T10:31:08.586Z,15.03
2022-10-09T10:32:08.516Z,15.04
2022-10-09T10:33:08.538Z,15.05
2022-10-09T10:34:08.518Z,15.12
2022-10-09T10:35:08.513Z,15.12
2022-10-09T10:36:08.495Z,15.10
2022-10-09T10:37:08.458Z,15.10
2022-10-09T10:38:10.143Z,15.11
2022-10-09T10:39:08.452Z,15.12
2022-10-09T10:40:08.452Z,15.23
2022-10-09T10:41:08.467Z,15.29
2022-10-09T10:42:08.458Z,15.27
2022-10-09T10:43:08.437Z,15.26
2022-10-09T10:44:08.367Z,15.30
2022-10-09T10:45:08.383Z,15.33
2022-10-09T10:46:08.377Z,15.35
2022-10-09T10:47:08.357Z,15.36
2022-10-09T10:48:08.392Z,15.36
2022-10-09T10:49:08.382Z,15.33
2022-10-09T10:50:08.336Z,15.38
2022-10-09T10:51:08.319Z,15.44
2022-10-09T10:52:08.343Z,15.43
2022-10-09T10:53:09.115Z,15.41
2022-10-09T10:54:08.281Z,15.40
2022-10-09T10:55:08.283Z,15.47
2022-10-09T10:56:10.028Z,15.48
2022-10-09T10:57:08.310Z,15.54
2022-10-09T10:58:09.195Z,15.60
2022-10-09T10:59:08.223Z,15.60
2022-10-09T11:00:08.216Z,15.60
2022-10-09T11:01:08.223Z,15.70
2022-10-09T11:02:08.204Z,15.69
2022-10-09T11:03:08.308Z,15.68
2022-10-09T11:04:08.180Z,15.68
2022-10-09T11:05:08.180Z,15.62
2022-10-09T11:06:08.178Z,15.62
2022-10-09T11:07:08.988Z,15.63
2022-10-09T11:08:08.129Z,15.60
2022-10-09T11:09:08.917Z,15.63
2022-10-09T11:10:08.125Z,15.70
2022-10-09T11:11:08.076Z,15.73
2022-10-09T11:12:15.568Z,15.80
2022-10-09T11:13:08.791Z,15.83
2022-10-09T11:14:08.072Z,15.85
2022-10-09T11:15:08.090Z,15.85
2022-10-09T11:16:08.072Z,15.88
2022-10-09T11:17:08.026Z,15.84
2022-10-09T11:18:08.274Z,15.85
2022-10-09T11:19:08.037Z,15.90
2022-10-09T11:20:07.997Z,15.93
2022-10-09T11:21:08.056Z,15.91
2022-10-09T11:22:11.353Z,15.91
2022-10-09T11:23:08.009Z,15.96
2022-10-09T11:24:07.991Z,15.98
2022-10-09T11:25:09.303Z,16.02
2022-10-09T11:26:08.030Z,16.00
2022-10-09T11:27:08.859Z,16.00
2022-10-09T11:28:07.960Z,16.00
2022-10-09T11:29:07.939Z,16.00
2022-10-09T11:30:07.943Z,16.06
2022-10-09T11:31:08.037Z,16.10
2022-10-09T11:32:09.596Z,16.21
2022-10-09T11:33:07.873Z,16.22
2022-10-09T11:34:07.853Z,16.28
2022-10-09T11:35:07.876Z,16.32
2022-10-09T11:36:07.891Z,16.37
2022-10-09T11:37:07.901Z,16.22
2022-10-09T11:38:10.018Z,16.17
2022-10-09T11:39:07.833Z,16.14
2022-10-09T11:40:07.795Z,16.13
2022-10-09T11:41:07.861Z,16.13
2022-10-09T11:42:07.865Z,16.18
2022-10-09T11:43:07.753Z,16.21
2022-10-09T11:44:07.778Z,16.22
2022-10-09T11:45:07.736Z,16.18
2022-10-09T11:46:07.851Z,16.25
2022-10-09T11:47:09.811Z,16.26
2022-10-09T11:48:07.774Z,16.29
2022-10-09T11:49:08.720Z,16.33
2022-10-09T11:50:07.698Z,16.29
2022-10-09T11:51:07.664Z,16.32
2022-10-09T11:52:07.683Z,16.32
2022-10-09T11:53:07.670Z,16.32
2022-10-09T11:54:07.659Z,16.33
2022-10-09T11:55:07.667Z,16.28
2022-10-09T11:56:07.627Z,16.28
2022-10-09T11:57:12.940Z,16.34
2022-10-09T11:58:07.612Z,16.40
2022-10-09T11:59:07.610Z,16.42
2022-10-09T12:00:07.588Z,16.44
2022-10-09T12:01:07.640Z,16.49
2022-10-09T12:02:07.661Z,16.46
2022-10-09T12:03:07.578Z,16.44
2022-10-09T12:04:07.595Z,16.42
2022-10-09T12:05:08.366Z,16.39
2022-10-09T12:06:07.516Z,16.33
2022-10-09T12:07:07.570Z,16.32
2022-10-09T12:08:07.528Z,16.32
2022-10-09T12:09:07.509Z,16.29
2022-10-09T12:10:07.472Z,16.33
2022-10-09T12:11:07.495Z,16.37
2022-10-09T12:12:07.502Z,16.33
2022-10-09T12:13:07.464Z,16.32
2022-10-09T12:14:07.584Z,16.33
2022-10-09T12:15:08.275Z,16.33
2022-10-09T12:16:07.479Z,16.36
2022-10-09T12:17:07.644Z,16.39
2022-10-09T12:18:07.424Z,16.40
2022-10-09T12:19:07.375Z,16.39
2022-10-09T12:20:07.417Z,16.34
2022-10-09T12:21:07.445Z,16.37
2022-10-09T12:22:07.420Z,16.39
2022-10-09T12:23:25.603Z,16.40
2022-10-09T12:24:07.334Z,16.47
2022-10-09T12:25:07.373Z,16.46
2022-10-09T12:26:07.371Z,16.49
2022-10-09T12:27:07.391Z,16.51
2022-10-09T12:28:07.395Z,16.57
2022-10-09T12:29:07.353Z,16.59
2022-10-09T12:30:08.151Z,16.61
2022-10-09T12:31:07.295Z,16.67
2022-10-09T12:32:08.038Z,16.72
2022-10-09T12:33:07.287Z,16.77
2022-10-09T12:34:07.299Z,16.74
2022-10-09T12:35:07.465Z,16.65
2022-10-09T12:36:08.125Z,16.64
2022-10-09T12:37:07.495Z,16.64
2022-10-09T12:38:07.252Z,16.67
2022-10-09T12:39:07.181Z,16.72
2022-10-09T12:40:07.216Z,16.73
2022-10-09T12:41:07.172Z,16.80
2022-10-09T12:42:07.314Z,16.80
2022-10-09T12:43:07.143Z,16.84
2022-10-09T12:44:07.147Z,16.84
2022-10-09T12:45:07.187Z,16.80
2022-10-09T12:46:07.217Z,16.77
2022-10-09T12:47:07.128Z,16.79
2022-10-09T12:48:07.155Z,16.76
2022-10-09T12:49:07.125Z,16.73
2022-10-09T12:50:07.121Z,16.77
2022-10-09T12:51:07.099Z,16.80
2022-10-09T12:52:08.763Z,16.79
2022-10-09T12:53:07.056Z,16.82
2022-10-09T12:54:07.053Z,16.83
2022-10-09T12:55:07.075Z,16.77
2022-10-09T12:56:07.054Z,16.77
2022-10-09T12:57:10.193Z,16.80
2022-10-09T12:58:07.015Z,16.80
2022-10-09T12:59:07.122Z,16.82
2022-10-09T13:00:06.987Z,16.82
2022-10-09T13:01:08.656Z,16.80
2022-10-09T13:02:07.357Z,16.84
2022-10-09T13:03:07.059Z,16.90
2022-10-09T13:04:06.967Z,16.87
2022-10-09T13:05:06.978Z,16.90
2022-10-09T13:06:06.948Z,16.90
2022-10-09T13:07:06.936Z,16.91
2022-10-09T13:08:06.993Z,16.90
2022-10-09T13:09:06.968Z,16.97
2022-10-09T13:10:06.951Z,16.98
2022-10-09T13:11:08.619Z,16.97
2022-10-09T13:12:06.875Z,16.97
2022-10-09T13:13:06.919Z,16.92
2022-10-09T13:14:07.241Z,16.84
2022-10-09T13:15:06.837Z,16.80
2022-10-09T13:16:10.771Z,16.83
2022-10-09T13:17:06.867Z,16.84
2022-10-09T13:18:06.868Z,16.88
2022-10-09T13:19:06.805Z,16.91
2022-10-09T13:20:06.798Z,16.95
2022-10-09T13:21:06.771Z,16.95
2022-10-09T13:22:06.825Z,16.99
2022-10-09T13:23:06.990Z,17.04
2022-10-09T13:24:08.397Z,17.06
2022-10-09T13:25:07.521Z,17.01
2022-10-09T13:26:06.758Z,16.99
2022-10-09T13:27:06.826Z,17.01
2022-10-09T13:28:07.206Z,17.06
2022-10-09T13:29:06.703Z,17.10
2022-10-09T13:30:06.679Z,17.14
2022-10-09T13:31:06.777Z,17.12
2022-10-09T13:32:06.656Z,17.06
2022-10-09T13:33:06.951Z,17.09
2022-10-09T13:34:09.267Z,17.09
2022-10-09T13:35:06.660Z,17.13
2022-10-09T13:36:06.636Z,17.13
2022-10-09T13:37:06.630Z,17.16
2022-10-09T13:38:07.394Z,17.19
2022-10-09T13:39:06.669Z,17.16
2022-10-09T13:40:07.326Z,17.12
2022-10-09T13:41:06.648Z,17.07
2022-10-09T13:42:06.556Z,17.01
2022-10-09T13:43:06.596Z,16.99
2022-10-09T13:44:08.433Z,16.97
2022-10-09T13:45:06.547Z,16.97
2022-10-09T13:46:06.659Z,16.99
2022-10-09T13:47:06.551Z,16.99
2022-10-09T13:48:06.506Z,17.01
2022-10-09T13:49:06.524Z,17.01
2022-10-09T13:50:06.495Z,16.98
2022-10-09T13:51:06.487Z,16.99
2022-10-09T13:52:06.479Z,17.02
2022-10-09T13:53:06.483Z,17.04
2022-10-09T13:54:06.459Z,17.09
2022-10-09T13:55:06.413Z,17.07
2022-10-09T13:56:06.463Z,17.10
2022-10-09T13:57:06.429Z,17.13
2022-10-09T13:58:06.414Z,17.10
2022-10-09T13:59:06.442Z,17.17
2022-10-09T14:00:06.379Z,17.17
2022-10-09T14:01:06.435Z,17.19
2022-10-09T14:02:06.406Z,17.20
2022-10-09T14:03:06.376Z,17.22
2022-10-09T14:04:06.321Z,17.24
2022-10-09T14:05:06.396Z,17.27
2022-10-09T14:06:08.019Z,17.28
2022-10-09T14:07:06.335Z,17.27
2022-10-09T14:08:06.954Z,17.28
2022-10-09T14:09:06.323Z,17.28
2022-10-09T14:10:06.292Z,17.31
2022-10-09T14:11:06.266Z,17.34
2022-10-09T14:12:09.511Z,17.32
2022-10-09T14:13:06.234Z,17.34
2022-10-09T14:14:07.984Z,17.34
2022-10-09T14:15:06.277Z,17.34
2022-10-09T14:16:07.839Z,17.31
2022-10-09T14:17:06.277Z,17.31
2022-10-09T14:18:06.901Z,17.32
2022-10-09T14:19:06.326Z,17.34
2022-10-09T14:20:08.015Z,17.35
2022-10-09T14:21:06.178Z,17.34
2022-10-09T14:22:06.190Z,17.34
2022-10-09T14:23:06.192Z,17.34
2022-10-09T14:24:06.216Z,17.32
2022-10-09T14:25:06.420Z,17.31
2022-10-09T14:26:06.210Z,17.31
2022-10-09T14:27:06.113Z,17.31
2022-10-09T14:28:06.892Z,17.35
2022-10-09T14:29:06.090Z,17.35
2022-10-09T14:30:06.098Z,17.37
2022-10-09T14:31:06.101Z,17.37
2022-10-09T14:32:08.617Z,17.39
2022-10-09T14:33:06.082Z,17.35
2022-10-09T14:34:07.851Z,17.32
2022-10-09T14:35:06.077Z,17.28
2022-10-09T14:36:06.071Z,17.24
2022-10-09T14:37:18.496Z,17.17
2022-10-09T14:38:15.520Z,17.17
2022-10-09T14:39:05.987Z,17.20
2022-10-09T14:40:06.037Z,17.13
2022-10-09T14:41:06.008Z,17.13
2022-10-09T14:42:06.009Z,17.13
2022-10-09T14:43:05.956Z,17.10
2022-10-09T14:44:05.966Z,17.13
2022-10-09T14:45:05.942Z,17.14
2022-10-09T14:46:05.929Z,17.14
2022-10-09T14:47:05.943Z,17.19
2022-10-09T14:48:05.958Z,17.22
2022-10-09T14:49:05.895Z,17.28
2022-10-09T14:50:05.963Z,17.30
2022-10-09T14:51:05.904Z,17.31
2022-10-09T14:52:05.942Z,17.31
2022-10-09T14:53:05.878Z,17.24
2022-10-09T14:54:05.888Z,17.22
2022-10-09T14:55:07.526Z,17.25
2022-10-09T14:56:05.824Z,17.20
2022-10-09T14:57:07.709Z,17.20
2022-10-09T14:58:07.653Z,17.22
2022-10-09T14:59:08.652Z,17.25
2022-10-09T15:00:06.682Z,17.22
2022-10-09T15:01:07.577Z,17.25
2022-10-09T15:02:06.910Z,17.24
2022-10-09T15:03:05.751Z,17.24
2022-10-09T15:04:05.816Z,17.19
2022-10-09T15:05:07.010Z,17.20
2022-10-09T15:06:05.764Z,17.17
2022-10-09T15:07:07.365Z,17.16
2022-10-09T15:08:05.772Z,17.14
2022-10-09T15:09:06.196Z,17.07
2022-10-09T15:10:05.661Z,17.04
2022-10-09T15:11:16.089Z,17.02
2022-10-09T15:12:05.689Z,17.04
2022-10-09T15:13:05.645Z,17.01
2022-10-09T15:14:05.627Z,17.02
2022-10-09T15:15:05.618Z,17.02
2022-10-09T15:16:05.624Z,17.01
2022-10-09T15:17:05.632Z,17.04
2022-10-09T15:18:05.651Z,17.02
2022-10-09T15:19:05.643Z,17.04
2022-10-09T15:20:05.570Z,17.09
2022-10-09T15:21:05.589Z,17.04
2022-10-09T15:22:05.560Z,17.06
2022-10-09T15:23:05.543Z,16.99
2022-10-09T15:24:05.543Z,17.01
2022-10-09T15:25:05.561Z,17.01
2022-10-09T15:26:07.037Z,16.97
2022-10-09T15:27:05.542Z,16.94
2022-10-09T15:28:05.585Z,16.95
2022-10-09T15:29:05.499Z,16.91
2022-10-09T15:30:05.466Z,16.94
2022-10-09T15:31:06.189Z,16.92
2022-10-09T15:32:05.467Z,16.90
2022-10-09T15:33:05.449Z,16.88
2022-10-09T15:34:05.441Z,16.88
2022-10-09T15:35:05.447Z,16.84
2022-10-09T15:36:05.461Z,16.82
2022-10-09T15:37:05.413Z,16.84
2022-10-09T15:38:05.403Z,16.82
2022-10-09T15:39:07.275Z,16.77
2022-10-09T15:40:05.365Z,16.79
2022-10-09T15:41:05.406Z,16.79
2022-10-09T15:42:05.385Z,16.76
2022-10-09T15:43:05.345Z,16.77
2022-10-09T15:44:05.387Z,16.80
2022-10-09T15:45:05.333Z,16.76
2022-10-09T15:46:05.529Z,16.76
2022-10-09T15:47:05.300Z,16.79
2022-10-09T15:48:10.226Z,16.74
2022-10-09T15:49:05.342Z,16.69
2022-10-09T15:50:05.322Z,16.65
2022-10-09T15:51:05.260Z,16.65
2022-10-09T15:52:05.243Z,16.65
2022-10-09T15:53:05.253Z,16.65
2022-10-09T15:54:05.253Z,16.62
2022-10-09T15:55:05.235Z,16.64
2022-10-09T15:56:06.197Z,16.61
2022-10-09T15:57:05.203Z,16.61